Strona główna
METAR-TAF:

METAR-TAF

Lotnisko :

Youngstown / Warren, Ohio, Stany Zjednoczone

Szerokość geograficzna: 41-15-16N, Długość geograficzna: 080-40-26W, wysokość: 364 m

Aktualna obserwacja pogody

Raport powstał 1 godzina i 3 minut temu, godzina 05:51 UTC
Wiatr 6 kt od zachodnio-południowy zachód
Temperatura -7°C
Wilgotność 67%
Ciśnienie 1035 hPa
Widzialność: 16.1 km
Mało chmury na wysokości 3100 ft

METAR: KYNG 120551Z 24006KT 10SM FEW031 M07/M12 A3056 RMK AO2 SLP365 T10721117 11050 21078 53010

czas: 01:54 (06:54 UTC)

Prognoza

Raport powstał 1 godzina i 20 minut temu, godzina 05:34 UTC
Prognoza ważna od 12 godzina 06 UTC do 13 godzina 06 UTC
Wiatr 4 kt od zachodnio-południowy zachód
Widzialność: 10 km
Mało chmury na wysokości 3500 ft
Od 12 godzina 1400 UTC
Wiatr 10 kt od południowo-południowy wschód
Widzialność: 10 km
Rozproszone chmury na wysokości 25000 ft

TAF: KYNG 120534Z 1206/1306 25004KT P6SM FEW035 FM121400 16010KT P6SM SCT250

Obserwacja i prognoza pogody dla ponad 4000 lotnisk (raport METAR i TAF).

Dostępne stacje oznaczono żółtymi i czerwonymi punktami na mapie.

Najedź kursorem aby zobaczyć nazwę stacji.

Kliknij aby zobaczyć obserwacje i prognozy pogody.

Aby zmienić mapę: kliknij na zielony przycisk z czarnym krzyżykiem, aby powiększyć; na zielony przycisk z myślnikiem, aby pomniejszyć; na zielone strzałki, aby przejść do map sąsiednich.


METAR-TAF: